Bingham, Utah
Current Conditions -  °F | °C
As of 11:53 AM on Thursday 18 Dec 2014 (Local Time) from KSLC Reporting Station
Scattered Clouds Scattered Clouds  
Wind Chill: 35°   Ceiling: Unl
Heat Index: 40°   Visibility: 9mi
Dew Point: 33°   Wind: 7mph
Humidity: 77%   Direction: 160°SSE
Pressure: 30.16"   Gusts: NA
Location:  40.5425°N, 112.133°W
Report Text: KSLC 181853Z 16006KT 9SM FEW012 FEW035 SCT090 04/01 A3016 RMK AO2 SLP216 TCU DSNT NE AND SE AND SW SH DSNT SE AND NW T00440006 $
Loading
Personal Weather Stations






























Interactive Weather Map New forecast layout! Learn more

10-Day Weather Forecast

Advertisements
Track Severe Weather on mobile